createdAt,value
2019-05-26T00:00:26.606Z,5.50
2019-05-26T00:02:56.369Z,4.42
2019-05-26T00:05:24.583Z,5.58
2019-05-26T00:07:52.777Z,5.37
2019-05-26T00:10:20.978Z,5.78
2019-05-26T00:12:49.168Z,5.83
2019-05-26T00:15:17.371Z,5.33
2019-05-26T00:17:45.565Z,6.10
2019-05-26T00:20:13.936Z,5.72
2019-05-26T00:22:42.127Z,5.65
2019-05-26T00:25:10.586Z,6.30
2019-05-26T00:27:38.776Z,5.70
2019-05-26T00:30:07.413Z,6.70
2019-05-26T00:32:37.712Z,6.58
2019-05-26T00:35:08.040Z,5.80
2019-05-26T00:40:08.453Z,5.83
2019-05-26T00:42:36.642Z,6.45
2019-05-26T00:45:07.911Z,6.25
2019-05-26T00:47:36.101Z,5.72
2019-05-26T00:50:06.052Z,6.85
2019-05-26T00:52:34.257Z,6.40
2019-05-26T00:55:02.493Z,5.90
2019-05-26T00:57:30.682Z,6.08
2019-05-26T00:59:58.892Z,5.55
2019-05-26T01:02:27.084Z,5.70
2019-05-26T01:04:55.295Z,6.28
2019-05-26T01:07:23.482Z,5.85
2019-05-26T01:09:51.678Z,6.10
2019-05-26T01:12:19.881Z,6.62
2019-05-26T01:14:48.646Z,6.42
2019-05-26T01:17:17.327Z,7.00
2019-05-26T01:19:45.525Z,7.28
2019-05-26T01:22:14.074Z,6.78
2019-05-26T01:24:42.937Z,7.05
2019-05-26T01:27:11.150Z,6.70
2019-05-26T01:29:39.345Z,6.08
2019-05-26T01:32:07.550Z,6.30
2019-05-26T01:34:36.410Z,5.90
2019-05-26T01:37:05.637Z,6.80
2019-05-26T01:39:33.833Z,5.80
2019-05-26T01:42:02.668Z,5.90
2019-05-26T01:44:30.856Z,6.58
2019-05-26T01:46:59.060Z,7.03
2019-05-26T01:49:28.022Z,8.55
2019-05-26T01:52:00.391Z,7.70
2019-05-26T01:54:28.592Z,7.83
2019-05-26T01:56:58.270Z,8.65
2019-05-26T01:59:27.695Z,7.85
2019-05-26T02:01:58.628Z,7.08
2019-05-26T02:04:25.809Z,7.92
2019-05-26T02:06:54.333Z,7.47
2019-05-26T02:09:22.531Z,7.17
2019-05-26T02:11:50.734Z,7.00
2019-05-26T02:14:18.926Z,7.15
2019-05-26T02:16:47.141Z,7.00
2019-05-26T02:19:16.891Z,6.92
2019-05-26T02:21:45.161Z,7.87
2019-05-26T02:24:13.352Z,7.30
2019-05-26T02:26:41.617Z,7.87
2019-05-26T02:29:09.809Z,7.42
2019-05-26T02:31:38.015Z,9.00
2019-05-26T02:34:06.218Z,8.00
2019-05-26T02:36:34.417Z,8.43
2019-05-26T02:39:03.670Z,8.48
2019-05-26T02:41:31.956Z,8.65
2019-05-26T02:44:00.152Z,9.48
2019-05-26T02:46:28.349Z,8.88
2019-05-26T02:48:56.791Z,9.65
2019-05-26T02:51:24.994Z,9.68
2019-05-26T02:53:53.186Z,8.75
2019-05-26T02:56:21.391Z,8.48
2019-05-26T02:58:49.581Z,9.08
2019-05-26T03:01:17.791Z,8.40
2019-05-26T03:03:46.745Z,8.50
2019-05-26T03:06:15.135Z,9.28
2019-05-26T03:08:43.993Z,8.83
2019-05-26T03:11:12.556Z,9.50
2019-05-26T03:13:40.757Z,8.75
2019-05-26T03:16:09.623Z,8.90
2019-05-26T03:18:37.847Z,8.50
2019-05-26T03:21:06.021Z,9.25
2019-05-26T03:23:34.274Z,8.40
2019-05-26T03:26:02.526Z,8.38
2019-05-26T03:28:30.738Z,9.38
2019-05-26T03:30:59.498Z,9.28
2019-05-26T03:33:27.698Z,8.08
2019-05-26T03:35:55.893Z,8.98
2019-05-26T03:38:24.100Z,8.73
2019-05-26T03:40:52.296Z,8.98
2019-05-26T03:43:20.497Z,8.45
2019-05-26T03:46:04.125Z,8.80
2019-05-26T03:48:32.328Z,8.30
2019-05-26T03:51:00.548Z,7.55
2019-05-26T03:53:29.992Z,8.70
2019-05-26T03:55:58.231Z,8.70
2019-05-26T03:58:26.502Z,8.63
2019-05-26T04:00:54.693Z,8.68
2019-05-26T04:03:22.998Z,8.95
2019-05-26T04:05:51.176Z,9.28
2019-05-26T04:08:19.380Z,8.10
2019-05-26T04:10:47.573Z,8.60
2019-05-26T04:13:15.772Z,8.75
2019-05-26T04:15:44.555Z,7.62
2019-05-26T04:18:14.786Z,8.80
2019-05-26T04:20:45.760Z,7.72
2019-05-26T04:23:14.378Z,8.38
2019-05-26T04:25:44.146Z,8.20
2019-05-26T04:28:12.354Z,7.55
2019-05-26T04:30:40.552Z,7.72
2019-05-26T04:33:08.753Z,7.55
2019-05-26T04:35:37.736Z,8.10
2019-05-26T04:38:05.935Z,8.08
2019-05-26T04:40:34.205Z,7.78
2019-05-26T04:43:02.409Z,7.12
2019-05-26T04:45:30.589Z,8.15
2019-05-26T04:47:58.801Z,8.13
2019-05-26T04:50:26.998Z,8.00
2019-05-26T04:53:06.224Z,8.15
2019-05-26T04:55:25.702Z,7.50
2019-05-26T04:57:54.371Z,8.03
2019-05-26T05:00:22.566Z,7.92
2019-05-26T05:02:50.858Z,8.18
2019-05-26T05:05:19.617Z,7.42
2019-05-26T05:07:47.821Z,7.58
2019-05-26T05:10:16.013Z,8.03
2019-05-26T05:12:44.225Z,7.30
2019-05-26T05:15:12.693Z,7.67
2019-05-26T05:17:40.903Z,7.97
2019-05-26T05:20:09.097Z,8.28
2019-05-26T05:22:37.297Z,8.50
2019-05-26T05:25:14.223Z,8.50
2019-05-26T05:27:38.584Z,7.30
2019-05-26T05:30:08.535Z,7.70
2019-05-26T05:32:37.003Z,7.95
2019-05-26T05:35:08.270Z,7.85
2019-05-26T05:37:36.535Z,8.53
2019-05-26T05:40:06.960Z,7.20
2019-05-26T05:45:03.998Z,7.97
2019-05-26T05:47:32.195Z,8.73
2019-05-26T05:50:00.683Z,8.65
2019-05-26T05:52:29.649Z,9.05
2019-05-26T05:54:57.855Z,9.30
2019-05-26T05:57:26.063Z,8.80
2019-05-26T05:59:54.264Z,9.33
2019-05-26T06:02:22.461Z,8.78
2019-05-26T06:04:50.677Z,9.30
2019-05-26T06:07:19.655Z,9.55
2019-05-26T06:09:47.864Z,9.33
2019-05-26T06:12:16.128Z,9.28
2019-05-26T06:14:44.331Z,9.48
2019-05-26T06:17:12.531Z,9.78
2019-05-26T06:19:40.775Z,9.88
2019-05-26T06:22:08.978Z,9.93
2019-05-26T06:24:37.228Z,11.83
2019-05-26T06:27:05.423Z,11.03
2019-05-26T06:29:33.829Z,11.12
2019-05-26T06:32:02.395Z,10.68
2019-05-26T06:34:30.742Z,11.05
2019-05-26T06:36:59.516Z,10.43
2019-05-26T06:39:27.729Z,11.10
2019-05-26T06:41:58.285Z,10.95
2019-05-26T06:44:26.491Z,11.03
2019-05-26T06:46:54.691Z,11.35
2019-05-26T06:49:22.908Z,11.88
2019-05-26T06:51:51.120Z,12.30
2019-05-26T06:54:19.336Z,12.07
2019-05-26T06:56:47.528Z,11.35
2019-05-26T06:59:15.744Z,13.20
2019-05-26T07:01:43.939Z,13.72
2019-05-26T07:04:12.150Z,13.48
2019-05-26T07:06:40.362Z,14.68
2019-05-26T07:09:08.840Z,15.08
2019-05-26T07:11:51.713Z,15.63
2019-05-26T07:14:07.105Z,14.73
2019-05-26T07:16:38.395Z,16.17
2019-05-26T07:19:05.243Z,17.65
2019-05-26T07:21:33.443Z,17.82
2019-05-26T07:24:01.654Z,20.08
2019-05-26T07:26:29.864Z,22.22
2019-05-26T07:28:58.082Z,21.85
2019-05-26T07:31:26.280Z,22.02
2019-05-26T07:33:54.490Z,21.57
2019-05-26T07:36:22.686Z,21.23
2019-05-26T07:38:51.139Z,21.95
2019-05-26T07:41:19.366Z,21.25
2019-05-26T07:43:47.569Z,20.10
2019-05-26T07:46:15.779Z,21.07
2019-05-26T07:48:43.981Z,21.23
2019-05-26T07:51:12.189Z,19.50
2019-05-26T07:53:40.383Z,18.67
2019-05-26T07:56:08.594Z,19.10
2019-05-26T07:58:36.808Z,17.40
2019-05-26T08:03:47.021Z,16.82
2019-05-26T08:09:43.629Z,17.02
2019-05-26T08:12:25.008Z,15.10
2019-05-26T08:14:41.771Z,15.03
2019-05-26T08:17:09.976Z,15.23
2019-05-26T08:19:38.965Z,17.12
2019-05-26T08:22:07.172Z,15.53
2019-05-26T08:24:35.382Z,16.15
2019-05-26T08:27:03.652Z,15.63
2019-05-26T08:29:32.903Z,14.73
2019-05-26T08:32:01.106Z,14.45
2019-05-26T08:34:29.308Z,14.25
2019-05-26T08:36:57.527Z,13.00
2019-05-26T08:39:25.733Z,14.07
2019-05-26T08:41:54.715Z,14.93
2019-05-26T08:44:22.921Z,13.48
2019-05-26T08:46:51.138Z,14.25
2019-05-26T08:49:19.342Z,14.15
2019-05-26T08:51:47.554Z,13.60
2019-05-26T08:54:15.790Z,13.68
2019-05-26T08:56:43.999Z,14.47
2019-05-26T08:59:12.667Z,15.23
2019-05-26T09:01:40.951Z,14.33
2019-05-26T09:04:09.169Z,14.65
2019-05-26T09:06:37.367Z,14.87
2019-05-26T09:09:07.207Z,14.85
2019-05-26T09:11:35.429Z,15.23
2019-05-26T09:14:03.627Z,15.40
2019-05-26T09:16:31.842Z,14.25
2019-05-26T09:19:00.055Z,12.98
2019-05-26T09:21:28.270Z,12.15
2019-05-26T09:23:56.943Z,12.78
2019-05-26T09:26:25.628Z,13.43
2019-05-26T09:28:54.406Z,12.40
2019-05-26T09:31:23.294Z,11.57
2019-05-26T09:33:51.491Z,11.48
2019-05-26T09:36:19.744Z,10.38
2019-05-26T09:38:47.948Z,10.95
2019-05-26T09:41:16.167Z,10.43
2019-05-26T09:43:44.372Z,11.10
2019-05-26T09:46:12.659Z,10.72
2019-05-26T09:48:40.874Z,10.48
2019-05-26T09:51:09.876Z,10.78
2019-05-26T09:53:38.808Z,10.05
2019-05-26T09:56:07.116Z,10.65
2019-05-26T09:58:37.781Z,9.80
2019-05-26T10:01:05.997Z,10.50
2019-05-26T10:03:34.495Z,9.73
2019-05-26T10:06:02.878Z,9.78
2019-05-26T10:08:31.086Z,8.98
2019-05-26T10:10:59.352Z,9.23
2019-05-26T10:13:31.679Z,8.45
2019-05-26T10:18:25.358Z,8.83
2019-05-26T10:20:53.571Z,8.55
2019-05-26T10:23:21.762Z,8.55
2019-05-26T10:25:49.999Z,8.13
2019-05-26T10:28:18.185Z,7.47
2019-05-26T10:30:47.069Z,8.65
2019-05-26T10:33:15.272Z,7.12
2019-05-26T10:35:43.825Z,7.95
2019-05-26T10:38:12.741Z,6.97
2019-05-26T10:40:42.506Z,7.42
2019-05-26T10:43:10.717Z,6.35
2019-05-26T10:45:39.532Z,7.10
2019-05-26T10:48:07.826Z,7.35
2019-05-26T10:50:36.021Z,7.25
2019-05-26T10:53:04.233Z,7.87
2019-05-26T10:55:32.421Z,7.58
2019-05-26T10:58:00.641Z,7.03
2019-05-26T11:00:28.839Z,6.53
2019-05-26T11:02:57.053Z,7.30
2019-05-26T11:05:25.531Z,7.35
2019-05-26T11:07:53.729Z,6.90
2019-05-26T11:10:21.927Z,7.85
2019-05-26T11:12:50.134Z,6.50
2019-05-26T11:15:19.030Z,6.85
2019-05-26T11:17:47.978Z,6.45
2019-05-26T11:20:17.807Z,6.87
2019-05-26T11:22:46.026Z,6.42
2019-05-26T11:25:15.088Z,6.50
2019-05-26T11:27:43.317Z,6.20
2019-05-26T11:30:12.528Z,6.42
2019-05-26T11:32:40.735Z,5.92
2019-05-26T11:35:08.925Z,6.60
2019-05-26T11:37:37.135Z,6.30
2019-05-26T11:40:06.570Z,5.58
2019-05-26T11:42:34.772Z,5.55
2019-05-26T11:45:04.504Z,5.17
2019-05-26T11:47:33.381Z,5.17
2019-05-26T11:50:01.590Z,6.03
2019-05-26T11:52:29.794Z,5.30
2019-05-26T11:54:58.000Z,5.55
2019-05-26T11:57:26.209Z,5.03
2019-05-26T11:59:54.416Z,5.30
2019-05-26T12:02:22.614Z,4.80
2019-05-26T12:04:50.818Z,4.12
2019-05-26T12:07:19.010Z,4.53
2019-05-26T12:09:47.207Z,4.33
2019-05-26T12:12:15.415Z,3.92
2019-05-26T12:14:44.376Z,4.00
2019-05-26T12:17:12.585Z,3.70
2019-05-26T12:19:40.782Z,4.30
2019-05-26T12:22:08.987Z,3.37
2019-05-26T12:24:37.755Z,3.80
2019-05-26T12:27:05.966Z,4.70
2019-05-26T12:29:34.158Z,4.12
2019-05-26T12:32:02.374Z,3.72
2019-05-26T12:34:30.592Z,4.55
2019-05-26T12:36:58.820Z,3.60
2019-05-26T12:39:27.007Z,3.70
2019-05-26T12:41:55.233Z,4.05
2019-05-26T12:44:24.514Z,4.03
2019-05-26T12:46:53.281Z,3.60
2019-05-26T12:49:21.493Z,4.15
2019-05-26T12:51:50.463Z,3.83
2019-05-26T12:54:18.660Z,3.77
2019-05-26T12:56:46.854Z,3.50
2019-05-26T12:59:15.634Z,4.10
2019-05-26T13:01:44.298Z,4.30
2019-05-26T13:04:13.175Z,3.77
2019-05-26T13:06:41.932Z,3.72
2019-05-26T13:09:11.706Z,3.83
2019-05-26T13:11:39.901Z,3.55
2019-05-26T13:14:08.110Z,3.70
2019-05-26T13:16:36.381Z,3.25
2019-05-26T13:19:05.263Z,3.15
2019-05-26T13:21:33.455Z,3.10
2019-05-26T13:24:01.669Z,2.98
2019-05-26T13:26:30.148Z,2.85
2019-05-26T13:28:59.692Z,3.58
2019-05-26T13:31:27.886Z,2.75
2019-05-26T13:33:56.085Z,2.70
2019-05-26T13:36:24.347Z,2.60
2019-05-26T13:38:53.317Z,2.75
2019-05-26T13:41:21.541Z,2.37
2019-05-26T13:43:50.418Z,2.65
2019-05-26T13:46:19.221Z,2.42
2019-05-26T13:48:47.398Z,2.40
2019-05-26T13:51:16.157Z,2.37
2019-05-26T13:53:44.364Z,2.52
2019-05-26T13:56:12.555Z,2.40
2019-05-26T13:58:40.763Z,2.22
2019-05-26T14:01:08.962Z,2.52
2019-05-26T14:03:37.482Z,2.30
2019-05-26T14:06:05.734Z,2.12
2019-05-26T14:08:33.914Z,2.75
2019-05-26T14:11:02.101Z,2.17
2019-05-26T14:13:30.975Z,2.40
2019-05-26T14:15:59.738Z,2.37
2019-05-26T14:18:28.318Z,3.05
2019-05-26T14:20:56.509Z,2.87
2019-05-26T14:23:24.712Z,2.65
2019-05-26T14:25:52.908Z,2.52
2019-05-26T14:28:21.114Z,3.05
2019-05-26T14:30:49.304Z,3.00
2019-05-26T14:33:17.574Z,2.55
2019-05-26T14:35:47.245Z,2.95
2019-05-26T14:38:15.769Z,2.58
2019-05-26T14:40:43.969Z,2.60
2019-05-26T14:43:12.191Z,2.30
2019-05-26T14:45:52.905Z,2.55
2019-05-26T14:48:10.863Z,2.47
2019-05-26T14:50:40.856Z,2.60
2019-05-26T14:53:08.985Z,3.02
2019-05-26T14:55:37.198Z,2.70
2019-05-26T14:58:14.866Z,2.77
2019-05-26T15:00:36.118Z,2.98
2019-05-26T15:03:04.524Z,2.55
2019-05-26T15:05:32.884Z,2.47
2019-05-26T15:08:02.251Z,2.62
2019-05-26T15:10:31.221Z,2.33
2019-05-26T15:12:59.413Z,2.35
2019-05-26T15:15:27.715Z,3.37
2019-05-26T15:17:55.907Z,2.83
2019-05-26T15:20:24.112Z,2.70
2019-05-26T15:22:52.328Z,2.47
2019-05-26T15:25:21.094Z,2.40
2019-05-26T15:27:49.296Z,2.50
2019-05-26T15:30:17.671Z,2.60
2019-05-26T15:32:46.335Z,2.42
2019-05-26T15:35:14.541Z,2.60
2019-05-26T15:37:42.810Z,2.65
2019-05-26T15:40:11.017Z,2.37
2019-05-26T15:42:39.230Z,2.25
2019-05-26T15:45:07.716Z,2.77
2019-05-26T15:47:35.909Z,2.55
2019-05-26T15:50:06.720Z,2.25
2019-05-26T15:52:34.918Z,2.10
2019-05-26T15:55:03.129Z,2.20
2019-05-26T15:57:31.468Z,3.02
2019-05-26T15:59:59.912Z,2.55
2019-05-26T16:02:28.104Z,2.60
2019-05-26T16:04:58.901Z,4.60
2019-05-26T16:07:26.826Z,3.12
2019-05-26T16:09:55.098Z,3.02
2019-05-26T16:12:23.293Z,2.70
2019-05-26T16:14:51.509Z,2.77
2019-05-26T16:17:20.268Z,2.50
2019-05-26T16:19:48.470Z,2.65
2019-05-26T16:22:16.665Z,2.77
2019-05-26T16:24:44.872Z,3.20
2019-05-26T16:27:19.334Z,2.47
2019-05-26T16:29:46.385Z,2.50
2019-05-26T16:32:12.924Z,2.80
2019-05-26T16:34:41.140Z,2.67
2019-05-26T16:37:09.340Z,2.75
2019-05-26T16:39:37.808Z,2.40
2019-05-26T16:42:06.038Z,2.77
2019-05-26T16:44:34.236Z,2.60
2019-05-26T16:47:03.080Z,2.55
2019-05-26T16:49:31.531Z,2.50
2019-05-26T16:52:00.298Z,2.47
2019-05-26T16:54:28.505Z,2.62
2019-05-26T16:56:56.707Z,2.02
2019-05-26T16:59:24.903Z,2.27
2019-05-26T17:01:53.110Z,2.20
2019-05-26T17:04:21.314Z,1.87
2019-05-26T17:06:49.690Z,2.30
2019-05-26T17:09:18.371Z,2.58
2019-05-26T17:11:46.577Z,4.12
2019-05-26T17:14:15.346Z,7.45
2019-05-26T17:16:44.020Z,3.52
2019-05-26T17:19:12.236Z,2.72
2019-05-26T17:21:45.577Z,4.97
2019-05-26T17:24:12.539Z,5.12
2019-05-26T17:26:40.744Z,3.15
2019-05-26T17:29:09.408Z,3.50
2019-05-26T17:31:37.610Z,4.60
2019-05-26T17:34:05.810Z,3.02
2019-05-26T17:36:34.590Z,3.15
2019-05-26T17:39:02.858Z,2.80
2019-05-26T17:41:31.051Z,3.50
2019-05-26T17:47:30.665Z,2.55
2019-05-26T17:49:58.024Z,2.52
2019-05-26T17:52:26.222Z,2.50
2019-05-26T17:54:54.418Z,2.80
2019-05-26T17:57:22.626Z,8.83
2019-05-26T17:59:50.816Z,2.80
2019-05-26T18:02:19.882Z,3.27
2019-05-26T18:04:48.076Z,3.10
2019-05-26T18:07:16.283Z,3.05
2019-05-26T18:09:44.844Z,3.45
2019-05-26T18:12:13.237Z,2.65
2019-05-26T18:14:41.806Z,2.98
2019-05-26T18:17:10.641Z,3.37
2019-05-26T18:19:41.282Z,2.90
2019-05-26T18:22:13.374Z,2.70
2019-05-26T18:24:53.143Z,2.92
2019-05-26T18:29:39.409Z,3.40
2019-05-26T18:32:07.641Z,3.00
2019-05-26T18:34:36.096Z,2.90
2019-05-26T18:37:04.371Z,2.98
2019-05-26T18:39:32.853Z,2.98
2019-05-26T18:42:02.510Z,3.42
2019-05-26T18:44:30.699Z,3.10
2019-05-26T18:46:58.966Z,3.42
2019-05-26T18:49:27.152Z,3.40
2019-05-26T18:51:57.760Z,3.37
2019-05-26T18:54:26.208Z,3.67
2019-05-26T18:56:54.429Z,3.20
2019-05-26T18:59:22.626Z,3.50
2019-05-26T19:01:50.829Z,3.50
2019-05-26T19:04:19.037Z,3.35
2019-05-26T19:06:47.243Z,3.70
2019-05-26T19:09:15.441Z,3.35
2019-05-26T19:11:44.215Z,3.30
2019-05-26T19:14:12.405Z,3.65
2019-05-26T19:16:41.187Z,3.70
2019-05-26T19:19:09.385Z,3.27
2019-05-26T19:21:37.618Z,3.52
2019-05-26T19:24:05.814Z,3.55
2019-05-26T19:26:34.022Z,3.60
2019-05-26T19:29:05.049Z,3.75
2019-05-26T19:31:33.607Z,4.25
2019-05-26T19:34:01.807Z,3.80
2019-05-26T19:36:30.014Z,3.92
2019-05-26T19:38:58.211Z,3.72
2019-05-26T19:41:26.415Z,3.83
2019-05-26T19:43:54.609Z,4.40
2019-05-26T19:46:22.814Z,3.83
2019-05-26T19:48:51.095Z,3.92
2019-05-26T19:51:19.304Z,4.00
2019-05-26T19:53:47.505Z,4.28
2019-05-26T19:56:15.705Z,4.37
2019-05-26T19:58:43.901Z,4.70
2019-05-26T20:01:13.999Z,4.83
2019-05-26T20:03:42.482Z,4.15
2019-05-26T20:06:10.684Z,3.90
2019-05-26T20:08:38.900Z,4.30
2019-05-26T20:11:07.112Z,4.25
2019-05-26T20:13:35.321Z,3.95
2019-05-26T20:16:03.581Z,4.22
2019-05-26T20:18:33.367Z,4.30
2019-05-26T20:23:49.348Z,4.22
2019-05-26T20:26:17.541Z,4.12
2019-05-26T20:28:45.760Z,3.80
2019-05-26T20:31:13.996Z,4.00
2019-05-26T20:33:42.745Z,3.80
2019-05-26T20:36:10.935Z,3.80
2019-05-26T20:38:39.314Z,4.60
2019-05-26T20:41:07.509Z,4.20
2019-05-26T20:43:35.751Z,4.30
2019-05-26T20:46:03.937Z,4.35
2019-05-26T20:48:32.142Z,4.15
2019-05-26T20:51:00.346Z,4.58
2019-05-26T20:53:28.546Z,4.05
2019-05-26T20:55:56.811Z,4.17
2019-05-26T20:58:26.157Z,5.03
2019-05-26T21:00:54.355Z,6.70
2019-05-26T21:03:22.580Z,4.35
2019-05-26T21:05:50.840Z,4.12
2019-05-26T21:08:19.050Z,4.53
2019-05-26T21:10:47.716Z,5.22
2019-05-26T21:13:17.390Z,5.08
2019-05-26T21:15:45.586Z,4.40
2019-05-26T21:18:13.847Z,5.12
2019-05-26T21:20:43.839Z,4.72
2019-05-26T21:23:12.024Z,3.92
2019-05-26T21:25:40.231Z,4.20
2019-05-26T21:28:08.430Z,4.37
2019-05-26T21:30:36.658Z,4.00
2019-05-26T21:33:05.023Z,3.95
2019-05-26T21:35:35.878Z,4.28
2019-05-26T21:38:04.075Z,4.22
2019-05-26T21:40:32.773Z,4.10
2019-05-26T21:43:00.968Z,4.35
2019-05-26T21:45:29.434Z,3.92
2019-05-26T21:47:57.742Z,4.40
2019-05-26T21:50:25.945Z,3.77
2019-05-26T21:52:54.154Z,4.20
2019-05-26T21:55:22.351Z,4.15
2019-05-26T21:57:51.024Z,3.98
2019-05-26T22:00:23.708Z,3.92
2019-05-26T22:02:52.687Z,4.08
2019-05-26T22:05:20.876Z,4.20
2019-05-26T22:07:49.077Z,4.70
2019-05-26T22:10:17.273Z,4.37
2019-05-26T22:12:45.476Z,4.60
2019-05-26T22:15:15.306Z,4.30
2019-05-26T22:17:43.499Z,5.22
2019-05-26T22:20:11.782Z,4.62
2019-05-26T22:22:39.971Z,4.28
2019-05-26T22:25:08.178Z,4.95
2019-05-26T22:27:36.372Z,4.87
2019-05-26T22:30:08.387Z,4.55
2019-05-26T22:32:36.912Z,4.95
2019-05-26T22:35:08.126Z,4.70
2019-05-26T22:37:36.314Z,4.83
2019-05-26T22:40:06.520Z,4.90
2019-05-26T22:42:34.722Z,4.92
2019-05-26T22:45:03.747Z,4.90
2019-05-26T22:47:32.155Z,5.28
2019-05-26T22:50:00.365Z,5.20
2019-05-26T22:52:28.558Z,4.80
2019-05-26T22:54:56.760Z,4.80
2019-05-26T22:57:24.949Z,5.05
2019-05-26T22:59:53.150Z,4.58
2019-05-26T23:02:22.691Z,4.97
2019-05-26T23:04:50.896Z,4.93
2019-05-26T23:07:19.086Z,4.45
2019-05-26T23:09:47.293Z,4.83
2019-05-26T23:12:16.522Z,4.80
2019-05-26T23:14:44.728Z,5.25
2019-05-26T23:17:12.927Z,5.10
2019-05-26T23:19:41.133Z,5.00
2019-05-26T23:22:09.328Z,4.65
2019-05-26T23:24:37.533Z,4.75
2019-05-26T23:27:05.808Z,5.22
2019-05-26T23:29:34.008Z,4.78
2019-05-26T23:32:03.663Z,4.70
2019-05-26T23:34:31.945Z,4.42
2019-05-26T23:37:00.136Z,4.70
2019-05-26T23:39:28.339Z,4.37
2019-05-26T23:41:56.524Z,4.95
2019-05-26T23:44:24.724Z,4.80
2019-05-26T23:46:52.913Z,4.78
2019-05-26T23:49:21.114Z,4.65
2019-05-26T23:51:49.306Z,4.58
2019-05-26T23:54:17.512Z,4.67
2019-05-26T23:56:46.479Z,4.60
2019-05-26T23:59:14.761Z,4.87
